KTIW/TIW METAR and TAF weather

Enter ICAO airport designator
Station Type Date Time Source
KTIW METAR 2019/06/18 16:53 UTC NOAA

KTIW 181653Z 22004KT 2SM BR BKN006 OVC012 13/12 A3025 RMK AO2 SLP241 T01280122


Station Type Date Time Source
KTIW Decoded METAR 2019/06/18 16:53 UTC NOAA

Tacoma, Tacoma Narrows Airport, WA, United States (KTIW) 47-16-03N 122-34-34W 96M
Jun 18, 2019 - 12:53 PM EDT / 2019.06.18 1653 UTC
Wind: from the SW (220 degrees) at 5 MPH (4 KT):0
Visibility: 2 mile(s):0
Sky conditions: overcast
Weather: mist
Temperature: 55.0 F (12.8 C)
Dew Point: 54.0 F (12.2 C)
Relative Humidity: 96%
Pressure (altimeter): 30.25 in. Hg (1024 hPa)
ob: KTIW 181653Z 22004KT 2SM BR BKN006 OVC012 13/12 A3025 RMK AO2 SLP241 T01280122
cycle: 17

Station Type Date Time Source
KTIW TAF UTC NOAA

Error!

Example: see airport list